Time;durP1;ratioP1;P1;durP2;ratioP2;P2;SDS_P1;SDS_P2;PMS_P1;PMS_P2;Temp;Humidity;BMP_temperature;BMP_pressure;BME280_temperature;BME280_humidity;BME280_pressure;Samples;Min_cycle;Max_cycle;Signal;HPM_P1;HPM_P2
2023/08/19 00:00:15;;;;;;;7.45;3.00;;;;;;;26.22;nan;95347.31;5073246;28;20032;-81
2023/08/19 00:02:42;;;;;;;8.45;3.33;;;;;;;25.84;nan;95295.94;5073622;28;20089;-82
2023/08/19 00:05:09;;;;;;;10.00;3.25;;;;;;;26.25;nan;95367.53;5071747;28;20120;-82
2023/08/19 00:07:35;;;;;;;9.60;3.80;;;;;;;25.96;nan;95347.34;5073979;28;20108;-82
2023/08/19 00:10:05;;;;;;;11.60;3.65;;;;;;;26.09;nan;95373.91;5072290;28;20060;-82
2023/08/19 00:12:31;;;;;;;13.68;3.90;;;;;;;25.85;nan;95352.63;5072276;28;20031;-82
2023/08/19 00:14:57;;;;;;;8.20;3.60;;;;;;;25.62;nan;95306.53;5072996;28;20486;-82
2023/08/19 00:17:23;;;;;;;10.63;3.28;;;;;;;26.02;nan;95367.59;5071274;28;20049;-82
2023/08/19 00:19:49;;;;;;;8.18;4.13;;;;;;;25.94;nan;95366.72;5072200;28;20431;-82
2023/08/19 00:22:15;;;;;;;6.00;3.20;;;;;;;25.62;nan;95322.81;5071571;28;20092;-83
2023/08/19 00:24:40;;;;;;;8.60;4.13;;;;;;;25.86;nan;95364.28;5072313;28;20040;-82
2023/08/19 00:27:06;;;;;;;16.48;4.35;;;;;;;25.86;nan;95367.00;5071856;28;20044;-82
2023/08/19 00:29:32;;;;;;;7.25;3.55;;;;;;;25.59;nan;95328.97;5072371;28;20067;-82
2023/08/19 00:31:57;;;;;;;13.90;4.13;;;;;;;25.79;nan;95358.72;5071228;28;20121;-82
2023/08/19 00:34:22;;;;;;;6.82;4.00;;;;;;;25.40;nan;95330.97;5072964;28;20036;-82
2023/08/19 00:36:48;;;;;;;8.20;3.88;;;;;;;25.35;nan;95318.47;5072286;28;20040;-82
2023/08/19 00:39:14;;;;;;;10.60;3.53;;;;;;;25.45;nan;95323.31;5072548;28;20494;-82
2023/08/19 00:41:39;;;;;;;11.20;3.70;;;;;;;25.54;nan;95352.91;5070990;28;20033;-82
2023/08/19 00:44:05;;;;;;;10.52;3.95;;;;;;;25.58;nan;95338.25;5071787;28;20087;-82
2023/08/19 00:46:32;;;;;;;7.97;4.05;;;;;;;25.47;nan;95331.88;5072377;28;20051;-82
2023/08/19 00:49:00;;;;;;;10.75;3.58;;;;;;;25.03;nan;95252.84;5070399;28;20092;-82
2023/08/19 00:51:27;;;;;;;13.43;3.90;;;;;;;25.75;nan;95353.25;5070792;28;20419;-82
2023/08/19 00:53:53;;;;;;;10.40;3.58;;;;;;;25.57;nan;95335.88;5072217;28;20161;-82
2023/08/19 00:56:19;;;;;;;12.48;3.70;;;;;;;25.62;nan;95358.13;5072227;28;20038;-82
2023/08/19 00:58:45;;;;;;;7.97;4.18;;;;;;;25.41;nan;95327.09;5072236;28;20546;-82
2023/08/19 01:01:11;;;;;;;5.70;3.70;;;;;;;25.32;nan;95294.78;5071811;28;20048;-82
2023/08/19 01:03:37;;;;;;;8.25;3.90;;;;;;;25.37;nan;95325.13;5070487;28;20109;-81
2023/08/19 01:06:08;;;;;;;8.05;3.38;;;;;;;25.42;nan;95351.16;5071380;28;20306;-82
2023/08/19 01:08:42;;;;;;;8.38;3.95;;;;;;;25.24;nan;95333.81;5069969;28;20423;-82
2023/08/19 01:11:29;;;;;;;9.55;3.80;;;;;;;25.19;nan;95344.97;5071310;28;20045;-82
2023/08/19 01:14:14;;;;;;;10.85;3.67;;;;;;;25.25;nan;95349.72;5053911;28;20151;-81
2023/08/19 01:16:43;;;;;;;9.13;3.40;;;;;;;25.23;nan;95346.59;5069362;28;20097;-81
2023/08/19 01:19:29;;;;;;;14.20;4.20;;;;;;;25.14;nan;95350.72;5069470;28;20063;-81
2023/08/19 01:22:00;;;;;;;9.43;3.67;;;;;;;24.42;nan;95255.63;5069914;28;20617;-81
2023/08/19 01:24:33;;;;;;;4.63;3.17;;;;;;;24.32;nan;95262.44;5070696;28;20141;-82
2023/08/19 01:26:58;;;;;;;8.60;4.05;;;;;;;24.41;nan;95305.59;5068679;28;20158;-81
2023/08/19 01:29:23;;;;;;;14.13;3.92;;;;;;;23.21;nan;95103.50;5071407;28;20472;-81
2023/08/19 01:31:49;;;;;;;7.93;4.32;;;;;;;24.24;nan;95260.72;5070274;28;20200;-81
2023/08/19 01:34:14;;;;;;;10.45;3.30;;;;;;;24.77;nan;95344.97;5072061;28;20040;-81
2023/08/19 01:36:44;;;;;;;8.55;3.58;;;;;;;24.41;nan;95275.78;5071412;28;20036;-81
2023/08/19 01:39:10;;;;;;;8.00;3.75;;;;;;;24.78;nan;95330.28;5069481;28;20071;-81
2023/08/19 01:41:37;;;;;;;10.50;3.38;;;;;;;24.48;nan;95294.88;5069337;28;20514;-80
2023/08/19 01:44:03;;;;;;;7.47;3.80;;;;;;;24.65;nan;95329.66;5070065;28;20044;-80
2023/08/19 01:46:29;;;;;;;17.02;4.10;;;;;;;24.70;nan;95325.88;5069896;28;20113;-80
2023/08/19 01:48:54;;;;;;;9.00;4.30;;;;;;;24.78;nan;95328.34;5070293;28;20036;-80
2023/08/19 01:51:21;;;;;;;10.85;3.90;;;;;;;24.71;nan;95328.22;5070396;28;20033;-80
2023/08/19 01:53:46;;;;;;;6.20;3.55;;;;;;;24.26;nan;95266.56;5071982;28;20451;-80
2023/08/19 01:56:12;;;;;;;7.75;4.05;;;;;;;24.44;nan;95292.09;5073199;28;20044;-80
2023/08/19 01:58:37;;;;;;;11.50;4.18;;;;;;;24.72;nan;95324.34;5073221;28;20044;-80
2023/08/19 02:01:03;;;;;;;13.73;4.82;;;;;;;24.65;nan;95328.84;5073167;28;20136;-80
2023/08/19 02:03:29;;;;;;;5.38;3.80;;;;;;;24.64;nan;95319.97;5073600;28;20472;-80
2023/08/19 02:05:54;;;;;;;9.50;4.00;;;;;;;24.66;nan;95325.78;5073351;28;20047;-80
2023/08/19 02:08:19;;;;;;;9.73;3.92;;;;;;;24.07;nan;95258.44;5072695;28;20042;-81
2023/08/19 02:10:45;;;;;;;18.10;4.40;;;;;;;24.60;nan;95324.53;5073645;28;20033;-80
2023/08/19 02:13:10;;;;;;;10.77;4.10;;;;;;;24.21;nan;95277.69;5073311;28;20074;-80
2023/08/19 02:15:36;;;;;;;6.88;3.80;;;;;;;24.19;nan;95264.47;5075484;28;20452;-80
2023/08/19 02:18:01;;;;;;;9.00;4.30;;;;;;;24.33;nan;95293.81;5073268;28;20408;-81
2023/08/19 02:20:27;;;;;;;13.25;4.22;;;;;;;23.75;nan;95211.75;5073126;28;20033;-80
2023/08/19 02:22:53;;;;;;;12.07;4.22;;;;;;;24.44;nan;95315.69;5075147;28;20044;-80
2023/08/19 02:25:19;;;;;;;11.65;3.92;;;;;;;24.41;nan;95311.00;5074068;28;20110;-80
2023/08/19 02:27:44;;;;;;;5.55;4.05;;;;;;;24.16;nan;95265.19;5073948;28;20032;-81
2023/08/19 02:30:10;;;;;;;8.05;4.43;;;;;;;24.32;nan;95296.88;5072802;28;20055;-80
2023/08/19 02:32:41;;;;;;;8.00;4.05;;;;;;;24.50;nan;95328.59;5074992;28;20097;-80
2023/08/19 02:35:07;;;;;;;8.05;4.38;;;;;;;24.42;nan;95315.25;5074333;28;20055;-80
2023/08/19 02:37:32;;;;;;;7.05;4.50;;;;;;;24.33;nan;95310.09;5074568;28;20056;-80
2023/08/19 02:39:58;;;;;;;8.73;3.88;;;;;;;24.13;nan;95301.13;5072576;28;20152;-80
2023/08/19 02:42:23;;;;;;;10.45;4.40;;;;;;;23.99;nan;95271.03;5074958;28;20051;-80
2023/08/19 02:44:49;;;;;;;8.23;4.35;;;;;;;23.90;nan;95273.16;5074237;28;20499;-81
2023/08/19 02:47:14;;;;;;;10.43;4.72;;;;;;;24.19;nan;95334.91;5074460;28;20511;-80
2023/08/19 02:49:40;;;;;;;8.75;4.45;;;;;;;23.89;nan;95298.69;5074798;28;20032;-80
2023/08/19 02:52:06;;;;;;;9.57;4.18;;;;;;;24.28;nan;95342.88;5073964;28;20025;-80
2023/08/19 02:54:31;;;;;;;15.63;4.05;;;;;;;24.17;nan;95336.44;5073264;28;20028;-80
2023/08/19 02:56:57;;;;;;;9.98;4.82;;;;;;;23.71;nan;95267.75;5072651;28;20458;-80
2023/08/19 02:59:22;;;;;;;10.10;4.10;;;;;;;24.21;nan;95340.81;5072672;28;20024;-80
2023/08/19 03:01:48;;;;;;;9.30;4.38;;;;;;;23.85;nan;95303.25;5074582;28;20076;-80
2023/08/19 03:04:14;;;;;;;12.25;4.38;;;;;;;23.63;nan;95271.44;5073152;28;20029;-80
2023/08/19 03:06:41;;;;;;;7.95;4.30;;;;;;;24.10;nan;95341.72;5073561;28;20085;-81
2023/08/19 03:09:06;;;;;;;10.02;3.75;;;;;;;24.12;nan;95342.91;5072982;28;20048;-80
2023/08/19 03:11:32;;;;;;;9.35;4.35;;;;;;;23.75;nan;95312.72;5071800;28;20123;-80
2023/08/19 03:13:58;;;;;;;9.02;4.57;;;;;;;23.85;nan;95320.28;5073909;28;20032;-81
2023/08/19 03:16:23;;;;;;;8.80;4.55;;;;;;;23.82;nan;95317.50;5074344;28;20043;-80
2023/08/19 03:18:49;;;;;;;9.73;4.35;;;;;;;23.61;nan;95298.06;5073806;28;20106;-80
2023/08/19 03:21:14;;;;;;;8.77;4.93;;;;;;;23.90;nan;95329.25;5073544;28;20103;-80
2023/08/19 03:23:40;;;;;;;8.40;4.43;;;;;;;23.73;nan;95314.19;5072700;28;20052;-80
2023/08/19 03:26:05;;;;;;;10.13;4.00;;;;;;;23.03;nan;95222.94;5072949;28;20051;-80
2023/08/19 03:28:30;;;;;;;6.28;4.07;;;;;;;23.67;nan;95329.94;5073639;28;20085;-80
2023/08/19 03:30:56;;;;;;;9.90;4.05;;;;;;;23.68;nan;95331.50;5073293;28;20065;-80
2023/08/19 03:33:21;;;;;;;11.13;4.65;;;;;;;23.56;nan;95320.81;5072747;28;20181;-81
2023/08/19 03:35:47;;;;;;;8.90;4.05;;;;;;;23.55;nan;95305.69;5072309;28;20056;-82
2023/08/19 03:38:13;;;;;;;9.68;4.75;;;;;;;23.34;nan;95280.81;5073651;28;20036;-82
2023/08/19 03:40:39;;;;;;;7.82;4.13;;;;;;;23.67;nan;95338.06;5072248;28;20055;-82
2023/08/19 03:43:08;;;;;;;8.93;4.32;;;;;;;23.48;nan;95292.00;5071408;28;20025;-82
2023/08/19 03:45:34;;;;;;;7.32;4.22;;;;;;;23.47;nan;95307.44;5072844;28;20104;-82
2023/08/19 03:48:00;;;;;;;7.60;4.07;;;;;;;23.75;nan;95344.41;5072635;28;20539;-80
2023/08/19 03:50:25;;;;;;;12.55;4.80;;;;;;;23.45;nan;95298.09;5071821;28;20514;-80
2023/08/19 03:52:51;;;;;;;8.73;4.50;;;;;;;23.45;nan;95342.16;5071637;28;20032;-81
2023/08/19 03:55:16;;;;;;;12.75;4.75;;;;;;;23.37;nan;95315.28;5072216;28;20398;-80
2023/08/19 03:57:42;;;;;;;11.55;4.57;;;;;;;23.15;nan;95270.72;5071924;28;20028;-80
2023/08/19 04:00:07;;;;;;;6.80;4.25;;;;;;;23.38;nan;95324.97;5073908;28;20344;-81
2023/08/19 04:02:33;;;;;;;10.00;4.40;;;;;;;23.27;nan;95313.91;5073223;28;20036;-80
2023/08/19 04:05:00;;;;;;;7.97;4.65;;;;;;;23.48;nan;95340.72;5074152;28;20111;-80
2023/08/19 04:07:26;;;;;;;7.78;4.90;;;;;;;23.39;nan;95327.34;5072965;28;20539;-80
2023/08/19 04:09:53;;;;;;;9.50;4.57;;;;;;;23.49;nan;95326.06;5081518;28;20068;-80
2023/08/19 04:12:18;;;;;;;17.88;4.82;;;;;;;23.26;nan;95304.22;5074050;28;20501;-80
2023/08/19 04:14:43;;;;;;;6.43;4.07;;;;;;;23.42;nan;95336.69;5073568;28;20105;-80
2023/08/19 04:17:09;;;;;;;10.75;4.80;;;;;;;23.63;nan;95350.75;5072827;28;20077;-81
2023/08/19 04:19:35;;;;;;;10.40;3.92;;;;;;;23.18;nan;95336.88;5071745;28;20046;-80
2023/08/19 04:22:02;;;;;;;13.27;4.97;;;;;;;22.89;nan;95281.28;5072844;28;20505;-81
2023/08/19 04:24:27;;;;;;;12.63;4.82;;;;;;;23.30;nan;95342.19;5072836;28;20024;-80
2023/08/19 04:26:53;;;;;;;10.20;4.70;;;;;;;23.39;nan;95345.50;5070954;28;20074;-80
2023/08/19 04:29:18;;;;;;;10.25;5.35;;;;;;;23.11;nan;95318.56;5070997;28;20501;-81
2023/08/19 04:31:44;;;;;;;10.10;4.93;;;;;;;23.14;nan;95336.78;5072813;28;20110;-80
2023/08/19 04:34:09;;;;;;;6.28;4.53;;;;;;;23.12;nan;95319.31;5072475;28;20036;-80
2023/08/19 04:36:35;;;;;;;13.32;4.60;;;;;;;23.37;nan;95345.06;5071525;28;20040;-81
2023/08/19 04:39:00;;;;;;;9.82;4.78;;;;;;;23.43;nan;95352.56;5072063;28;20063;-81
2023/08/19 04:41:27;;;;;;;11.65;4.43;;;;;;;23.39;nan;95364.44;5072130;28;20039;-81
2023/08/19 04:43:52;;;;;;;11.35;4.20;;;;;;;23.51;nan;95358.16;5071100;28;20111;-81
2023/08/19 04:46:18;;;;;;;9.23;4.93;;;;;;;23.71;nan;95382.25;5072969;28;20044;-81
2023/08/19 04:48:43;;;;;;;8.70;4.45;;;;;;;23.37;nan;95334.22;5071133;28;20064;-81
2023/08/19 04:51:09;;;;;;;11.43;4.70;;;;;;;23.45;nan;95342.16;5072543;28;20115;-81
2023/08/19 04:53:34;;;;;;;9.27;4.60;;;;;;;23.26;nan;95344.81;5072372;28;20426;-81
2023/08/19 04:56:02;;;;;;;10.63;4.95;;;;;;;23.00;nan;95288.53;5070131;28;20094;-81
2023/08/19 04:58:28;;;;;;;12.85;5.03;;;;;;;23.47;nan;95366.97;5071796;28;20035;-81
2023/08/19 05:00:53;;;;;;;8.85;4.78;;;;;;;22.98;nan;95262.97;5070707;28;20415;-81
2023/08/19 05:03:19;;;;;;;7.90;4.72;;;;;;;23.56;nan;95355.22;5070503;28;20044;-81
2023/08/19 05:05:44;;;;;;;13.23;5.13;;;;;;;23.56;nan;95350.59;5070358;28;20036;-81
2023/08/19 05:08:10;;;;;;;11.23;5.63;;;;;;;23.78;nan;95389.75;5070419;28;20094;-81
2023/08/19 05:10:36;;;;;;;11.30;4.55;;;;;;;23.30;nan;95320.53;5072175;28;20039;-81
2023/08/19 05:13:02;;;;;;;12.18;5.03;;;;;;;23.35;nan;95366.25;5071852;28;20044;-81
2023/08/19 05:15:27;;;;;;;8.48;4.95;;;;;;;23.55;nan;95386.91;5070668;28;20032;-81
2023/08/19 05:17:53;;;;;;;12.80;4.93;;;;;;;23.45;nan;95393.59;5070064;28;20052;-81
2023/08/19 05:20:18;;;;;;;10.88;4.57;;;;;;;22.99;nan;95300.47;5070395;28;20049;-81
2023/08/19 05:22:44;;;;;;;13.32;5.10;;;;;;;23.43;nan;95374.22;5071080;28;20090;-81
2023/08/19 05:25:09;;;;;;;9.18;4.68;;;;;;;23.60;nan;95399.38;5070071;28;20025;-81
2023/08/19 05:27:35;;;;;;;12.40;4.85;;;;;;;23.58;nan;95369.16;5072109;28;20029;-82
2023/08/19 05:30:04;;;;;;;13.52;5.10;;;;;;;23.70;nan;95388.81;5069498;28;20499;-81
2023/08/19 05:32:29;;;;;;;13.00;5.10;;;;;;;23.64;nan;95376.69;5053650;28;20076;-81
2023/08/19 05:34:55;;;;;;;6.88;4.43;;;;;;;23.63;nan;95371.63;5071384;28;20471;-81
2023/08/19 05:37:20;;;;;;;8.82;4.75;;;;;;;23.72;nan;95383.84;5070109;28;20039;-81
2023/08/19 05:39:45;;;;;;;13.55;5.07;;;;;;;23.16;nan;95277.69;5071793;28;20139;-81
2023/08/19 05:42:12;;;;;;;11.13;4.95;;;;;;;23.08;nan;95282.16;5072126;28;20032;-81
2023/08/19 05:44:37;;;;;;;15.55;4.90;;;;;;;23.53;nan;95340.44;5069871;28;20032;-81
2023/08/19 05:47:03;;;;;;;13.65;4.90;;;;;;;23.32;nan;95307.44;5069776;28;20131;-81
2023/08/19 05:49:29;;;;;;;11.07;4.93;;;;;;;23.59;nan;95333.63;5071251;28;20036;-81
2023/08/19 05:51:58;;;;;;;16.17;5.30;;;;;;;23.61;nan;95334.06;5069638;28;20054;-81
2023/08/19 05:54:24;;;;;;;14.63;4.80;;;;;;;23.55;nan;95330.06;5072313;28;20128;-81
2023/08/19 05:56:49;;;;;;;15.13;5.25;;;;;;;23.88;nan;95350.53;5070559;28;20028;-81
2023/08/19 05:59:14;;;;;;;8.25;4.82;;;;;;;24.00;nan;95380.97;5072714;28;20108;-81
2023/08/19 06:01:40;;;;;;;8.55;5.15;;;;;;;23.97;nan;95367.34;5072844;28;20084;-81
2023/08/19 06:04:05;;;;;;;11.90;5.38;;;;;;;24.16;nan;95372.78;5072658;28;20120;-81
2023/08/19 06:06:31;;;;;;;16.13;5.70;;;;;;;24.27;nan;95381.94;5071406;28;20039;-81
2023/08/19 06:08:56;;;;;;;11.98;4.40;;;;;;;23.60;nan;95288.38;5071583;28;20064;-81
2023/08/19 06:11:22;;;;;;;10.25;4.28;;;;;;;23.84;nan;95318.72;5071985;28;20063;-81
2023/08/19 06:13:47;;;;;;;9.20;5.35;;;;;;;23.87;nan;95325.34;5071985;28;20062;-81
2023/08/19 06:16:13;;;;;;;11.60;4.72;;;;;;;24.29;nan;95395.94;5071940;28;20117;-81
2023/08/19 06:18:39;;;;;;;11.32;5.10;;;;;;;24.17;nan;95371.66;5069908;28;20103;-81
2023/08/19 06:21:05;;;;;;;6.90;4.20;;;;;;;24.16;nan;95370.09;5070750;28;20040;-81
2023/08/19 06:23:31;;;;;;;9.25;4.20;;;;;;;24.02;nan;95358.94;5072213;28;20047;-81
2023/08/19 06:25:56;;;;;;;11.45;3.97;;;;;;;24.09;nan;95388.91;5070617;28;20058;-81
2023/08/19 06:28:22;;;;;;;13.13;4.65;;;;;;;24.19;nan;95401.88;5071470;28;20044;-81
2023/08/19 06:30:48;;;;;;;11.98;4.88;;;;;;;23.49;nan;95276.56;5071943;28;20392;-81
2023/08/19 06:33:15;;;;;;;11.18;4.30;;;;;;;24.42;nan;95419.06;5070186;28;20093;-81
2023/08/19 06:35:41;;;;;;;13.00;4.03;;;;;;;24.46;nan;95413.72;5070723;28;20037;-81
2023/08/19 06:38:15;;;;;;;9.18;4.07;;;;;;;24.43;nan;95409.00;5070263;28;20048;-81
2023/08/19 06:40:54;;;;;;;13.68;4.13;;;;;;;24.51;nan;95406.06;5071159;28;20191;-81
2023/08/19 06:43:21;;;;;;;10.35;4.40;;;;;;;24.72;nan;95410.38;5074118;28;20049;-81
2023/08/19 06:45:48;;;;;;;10.40;4.03;;;;;;;24.31;nan;95341.38;5057929;28;20415;-82
2023/08/19 06:48:41;;;;;;;9.93;3.85;;;;;;;24.73;nan;95401.84;5074751;28;20448;-81
2023/08/19 06:51:07;;;;;;;9.18;3.95;;;;;;;24.89;nan;95399.84;5074542;28;20487;-81
2023/08/19 06:53:33;;;;;;;9.68;3.95;;;;;;;24.92;nan;95401.88;5074403;28;20036;-81
2023/08/19 06:56:31;;;;;;;16.10;4.05;;;;;;;24.81;nan;95400.84;5075513;28;20443;-81
2023/08/19 06:59:05;;;;;;;9.32;3.33;;;;;;;24.19;nan;95288.06;5075068;28;20063;-81
2023/08/19 07:01:34;;;;;;;10.18;3.85;;;;;;;24.81;nan;95381.09;5075234;28;20032;-81
2023/08/19 07:04:00;;;;;;;11.93;4.07;;;;;;;24.90;nan;95389.78;5073398;28;20044;-81
2023/08/19 07:06:31;;;;;;;4.60;3.40;;;;;;;25.08;nan;95393.66;5074759;28;20036;-81
2023/08/19 07:08:57;;;;;;;11.40;4.07;;;;;;;25.06;nan;95381.56;5072359;28;20448;-81
2023/08/19 07:11:23;;;;;;;8.38;4.15;;;;;;;25.14;nan;95373.19;5074229;28;20021;-81
2023/08/19 07:13:48;;;;;;;10.93;3.92;;;;;;;25.16;nan;95360.06;5074651;28;20485;-81
2023/08/19 07:19:37;;;;;;;;;;;;;;;25.50;nan;95390.06;5075258;28;20060;-81
2023/08/19 07:22:04;;;;;;;5.18;3.00;;;;;;;25.45;nan;95374.88;5075776;28;20303;-81
2023/08/19 07:24:31;;;;;;;12.90;3.03;;;;;;;25.40;nan;95360.84;5074128;28;20055;-81
2023/08/19 07:27:00;;;;;;;11.18;3.13;;;;;;;25.31;nan;95353.72;5075055;28;20101;-81
2023/08/19 07:29:26;;;;;;;9.35;3.00;;;;;;;25.68;nan;95385.75;5073662;28;20033;-81
2023/08/19 07:31:53;;;;;;;7.53;3.05;;;;;;;25.58;nan;95365.41;5075503;28;20082;-81
2023/08/19 07:34:19;;;;;;;11.75;3.40;;;;;;;25.45;nan;95347.72;5073794;28;20043;-81
2023/08/19 07:36:44;;;;;;;6.75;2.85;;;;;;;25.63;nan;95367.06;5075366;28;20068;-81
2023/08/19 07:39:10;;;;;;;5.10;2.67;;;;;;;25.69;nan;95373.75;5074970;28;20426;-81
2023/08/19 07:41:36;;;;;;;6.07;2.92;;;;;;;25.77;nan;95369.19;5073826;28;20423;-81
2023/08/19 07:44:01;;;;;;;7.57;2.72;;;;;;;25.87;nan;95385.63;5073681;28;20122;-81
2023/08/19 07:46:27;;;;;;;10.02;2.78;;;;;;;25.93;nan;95376.06;5075214;28;20539;-81
2023/08/19 07:48:52;;;;;;;12.75;3.05;;;;;;;26.03;nan;95397.13;5072986;28;20037;-81
2023/08/19 07:51:18;;;;;;;7.47;3.10;;;;;;;25.86;nan;95370.47;5073573;28;20040;-81
2023/08/19 07:53:43;;;;;;;6.53;2.80;;;;;;;26.00;nan;95378.88;5072771;28;20119;-81
2023/08/19 07:56:09;;;;;;;6.45;2.88;;;;;;;25.97;nan;95368.72;5074683;28;20067;-81
2023/08/19 07:58:36;;;;;;;6.93;3.03;;;;;;;26.08;nan;95390.63;5073769;28;20287;-81
2023/08/19 08:01:02;;;;;;;9.75;3.38;;;;;;;25.96;nan;95367.16;5072707;28;20033;-81
2023/08/19 08:03:28;;;;;;;5.72;2.97;;;;;;;25.98;nan;95372.22;5074481;28;20028;-81
2023/08/19 08:05:53;;;;;;;9.80;3.33;;;;;;;26.19;nan;95388.03;5074989;28;20028;-81
2023/08/19 08:08:19;;;;;;;5.00;2.50;;;;;;;26.32;nan;95398.34;5074965;28;20036;-81
2023/08/19 08:10:44;;;;;;;7.78;2.60;;;;;;;26.44;nan;95397.34;5071704;28;20075;-81
2023/08/19 08:13:10;;;;;;;4.53;2.65;;;;;;;26.37;nan;95383.66;5073518;28;20493;-81
2023/08/19 08:15:36;;;;;;;8.25;2.72;;;;;;;26.06;nan;95336.63;5072573;28;20028;-81
2023/08/19 08:18:01;;;;;;;10.15;3.65;;;;;;;26.33;nan;95378.16;5073355;28;20045;-79
2023/08/19 08:20:27;;;;;;;5.43;3.15;;;;;;;26.15;nan;95366.25;5071621;28;20033;-80
2023/08/19 08:22:52;;;;;;;9.10;3.28;;;;;;;26.49;nan;95397.78;5073818;28;20036;-81
2023/08/19 08:25:18;;;;;;;6.43;3.30;;;;;;;26.31;nan;95357.94;5070932;28;20518;-81
2023/08/19 08:27:43;;;;;;;5.90;3.45;;;;;;;26.38;nan;95355.31;5072338;28;20522;-81
2023/08/19 08:30:09;;;;;;;6.40;2.70;;;;;;;26.56;nan;95371.81;5071720;28;20051;-81
2023/08/19 08:32:35;;;;;;;9.15;3.33;;;;;;;26.64;nan;95368.03;5070031;28;20051;-81
2023/08/19 08:35:00;;;;;;;3.65;2.58;;;;;;;26.91;nan;95388.59;5070690;28;20151;-81
2023/08/19 08:37:26;;;;;;;4.38;2.90;;;;;;;26.86;nan;95375.28;5070549;28;20028;-81
2023/08/19 08:39:51;;;;;;;9.15;3.17;;;;;;;27.11;nan;95389.19;5071047;28;20144;-81
2023/08/19 08:42:17;;;;;;;4.22;2.95;;;;;;;27.02;nan;95350.59;5069997;28;20017;-81
2023/08/19 08:44:48;;;;;;;5.28;2.70;;;;;;;26.86;nan;95342.63;5070516;28;20032;-81
2023/08/19 08:47:15;;;;;;;6.82;3.63;;;;;;;27.30;nan;95380.81;5071987;28;20056;-81
2023/08/19 08:49:44;;;;;;;9.77;3.40;;;;;;;27.02;nan;95345.13;5072301;28;20024;-81
2023/08/19 08:52:09;;;;;;;7.75;3.08;;;;;;;27.25;nan;95367.53;5072304;28;20119;-80
2023/08/19 08:54:36;;;;;;;4.75;2.92;;;;;;;27.46;nan;95386.00;5070506;28;20071;-81
2023/08/19 08:57:02;;;;;;;9.75;2.88;;;;;;;27.25;nan;95335.63;5070679;28;20509;-81
2023/08/19 08:59:28;;;;;;;5.43;2.50;;;;;;;27.50;nan;95365.03;5070503;28;20223;-81
2023/08/19 09:01:55;;;;;;;5.68;2.40;;;;;;;27.78;nan;95369.91;5072270;28;20047;-81
2023/08/19 09:04:22;;;;;;;8.02;3.08;;;;;;;27.99;nan;95379.06;5071726;28;20032;-81
2023/08/19 09:06:54;;;;;;;6.65;2.90;;;;;;;27.85;nan;95345.44;5070130;28;20415;-81
2023/08/19 09:09:23;;;;;;;7.25;3.33;;;;;;;28.18;nan;95364.38;5070835;28;20168;-81
2023/08/19 09:11:52;;;;;;;5.10;3.08;;;;;;;28.35;nan;95368.34;5072848;28;20039;-81
2023/08/19 09:15:02;;;;;;;8.00;2.75;;;;;;;28.46;nan;95366.44;5071872;28;20024;-81
2023/08/19 09:17:27;;;;;;;5.38;2.70;;;;;;;28.43;nan;95326.31;4993321;28;20094;-81
2023/08/19 09:19:54;;;;;;;8.52;2.83;;;;;;;28.57;nan;95331.81;5009949;28;20500;-81
2023/08/19 09:22:22;;;;;;;4.10;2.53;;;;;;;28.54;nan;95302.56;5029908;28;20139;-81
2023/08/19 09:24:48;;;;;;;3.45;2.15;;;;;;;29.05;nan;95353.41;5071865;28;20032;-81
2023/08/19 09:27:23;;;;;;;7.32;2.58;;;;;;;28.93;nan;95340.13;5069938;28;20415;-81
2023/08/19 09:29:52;;;;;;;9.23;2.78;;;;;;;29.09;nan;95346.78;5070498;28;20035;-81
2023/08/19 09:32:27;;;;;;;6.13;2.33;;;;;;;29.12;nan;95354.22;5071843;28;20476;-81
2023/08/19 09:35:06;;;;;;;8.02;2.75;;;;;;;29.27;nan;95363.19;5071155;28;20086;-80
2023/08/19 09:37:33;;;;;;;7.40;2.53;;;;;;;29.26;nan;95360.84;5071683;28;20505;-81
2023/08/19 09:39:59;;;;;;;56.67;17.05;;;;;;;29.34;nan;95373.34;5070052;28;20418;-80
2023/08/19 09:42:26;;;;;;;9.02;2.63;;;;;;;29.46;nan;95365.56;5069659;28;20036;-80
2023/08/19 09:44:52;;;;;;;9.18;2.35;;;;;;;29.36;nan;95349.97;5071157;28;20028;-81
2023/08/19 09:47:17;;;;;;;4.97;2.30;;;;;;;29.43;nan;95330.06;5071289;28;20032;-81
2023/08/19 09:49:43;;;;;;;6.32;2.00;;;;;;;29.57;nan;95338.25;5069965;28;20039;-80
2023/08/19 09:52:19;;;;;;;6.45;2.33;;;;;;;29.40;nan;95307.03;5071578;28;20513;-80
2023/08/19 09:54:54;;;;;;;10.48;2.50;;;;;;;29.65;nan;95344.50;5053330;28;20098;-80
2023/08/19 09:57:32;;;;;;;5.65;2.58;;;;;;;30.14;nan;95352.63;5071007;28;20032;-81
2023/08/19 09:59:58;;;;;;;6.35;2.15;;;;;;;30.19;nan;95285.81;5070179;28;20059;-81
2023/08/19 10:02:24;;;;;;;3.45;2.00;;;;;;;31.22;nan;95309.91;5072061;28;20465;-81
2023/08/19 10:04:49;;;;;;;7.88;2.45;;;;;;;31.80;nan;95341.97;5069662;28;20044;-81
2023/08/19 10:07:16;;;;;;;4.85;2.08;;;;;;;32.47;nan;95322.06;5071165;28;20024;-81
2023/08/19 10:09:42;;;;;;;5.30;2.20;;;;;;;33.17;nan;95336.06;5071614;28;20102;-81
2023/08/19 10:12:12;;;;;;;4.35;1.90;;;;;;;33.82;nan;95320.09;5070236;28;20063;-82
2023/08/19 10:14:41;;;;;;;6.45;2.10;;;;;;;34.36;nan;95322.66;5069224;28;20033;-82
2023/08/19 10:17:06;;;;;;;3.88;2.10;;;;;;;35.26;nan;95356.22;5073411;28;20059;-82
2023/08/19 10:19:53;;;;;;;8.27;2.15;;;;;;;35.61;nan;95346.34;5072791;28;20071;-82
2023/08/19 10:22:19;;;;;;;6.22;2.28;;;;;;;36.03;nan;95302.31;5073137;28;20101;-81
2023/08/19 10:24:47;;;;;;;2.85;2.00;;;;;;;36.57;nan;95325.28;5074091;28;20067;-81
2023/08/19 10:27:19;;;;;;;4.55;1.77;;;;;;;37.16;nan;95328.72;5073524;28;20123;-81
2023/08/19 10:29:50;;;;;;;5.75;2.10;;;;;;;37.41;nan;95337.03;5075517;28;20181;-81
2023/08/19 10:32:31;;;;;;;3.50;1.98;;;;;;;37.38;nan;95310.25;5074715;28;20031;-81
2023/08/19 10:35:10;;;;;;;5.93;2.00;;;;;;;37.22;nan;95274.44;5075741;28;20067;-81
2023/08/19 10:37:40;;;;;;;7.22;2.55;;;;;;;37.41;nan;95307.38;5074070;28;20031;-81
2023/08/19 10:40:13;;;;;;;2.67;2.00;;;;;;;37.59;nan;95328.19;5075090;28;20174;-81
2023/08/19 10:42:39;;;;;;;6.78;2.20;;;;;;;37.85;nan;95319.38;5075049;28;20110;-82
2023/08/19 10:45:16;;;;;;;6.55;2.17;;;;;;;38.04;nan;95322.31;5073506;28;20040;-81
2023/08/19 10:47:42;;;;;;;4.80;2.17;;;;;;;37.61;nan;95331.28;5073037;28;20032;-81
2023/08/19 10:50:08;;;;;;;4.10;1.85;;;;;;;37.67;nan;95307.38;5075638;28;20047;-81
2023/08/19 10:52:33;;;;;;;6.78;2.17;;;;;;;37.78;nan;95329.91;5074841;28;20047;-81
2023/08/19 10:55:01;;;;;;;7.10;3.03;;;;;;;37.45;nan;95332.16;5074435;28;20094;-81
2023/08/19 10:57:28;;;;;;;5.10;1.92;;;;;;;37.30;nan;95334.59;5073498;28;20033;-81
2023/08/19 10:59:58;;;;;;;7.93;2.15;;;;;;;37.51;nan;95343.44;5074520;28;20478;-81
2023/08/19 11:02:24;;;;;;;;;;;;;;;37.17;nan;95347.63;5074801;28;20031;-81
2023/08/19 11:04:51;;;;;;;4.45;1.80;;;;;;;37.49;nan;95347.41;5074240;28;20190;-82
2023/08/19 11:07:17;;;;;;;6.80;1.95;;;;;;;37.71;nan;95325.38;5074146;28;20189;-82
2023/08/19 11:09:50;;;;;;;5.47;2.10;;;;;;;37.57;nan;95341.66;5075569;28;20093;-81
2023/08/19 11:12:18;;;;;;;7.50;1.90;;;;;;;37.10;nan;95347.84;5073726;28;20032;-82
2023/08/19 11:14:47;;;;;;;9.65;2.30;;;;;;;37.02;nan;95350.03;5053902;28;20482;-82
2023/08/19 11:17:13;;;;;;;8.05;2.53;;;;;;;36.97;nan;95327.69;5071986;28;20089;-82
2023/08/19 11:19:39;;;;;;;4.15;1.88;;;;;;;37.25;nan;95346.22;5074154;28;20632;-82
2023/08/19 11:22:05;;;;;;;6.43;2.45;;;;;;;36.97;nan;95356.13;5073011;28;20422;-82
2023/08/19 11:24:32;;;;;;;4.32;1.98;;;;;;;36.75;nan;95341.38;5073505;28;20449;-81
2023/08/19 11:26:58;;;;;;;3.17;1.85;;;;;;;36.79;nan;95284.00;5072351;28;20028;-82
2023/08/19 11:29:23;;;;;;;7.28;2.40;;;;;;;37.00;nan;95286.13;5072164;28;20422;-81
2023/08/19 11:31:49;;;;;;;3.35;1.98;;;;;;;37.10;nan;95334.00;5074375;28;20037;-81
2023/08/19 11:34:14;;;;;;;4.30;2.10;;;;;;;37.28;nan;95327.97;5072586;28;20043;-81
2023/08/19 11:36:43;;;;;;;4.07;2.03;;;;;;;37.21;nan;95312.38;5072020;28;20064;-82
2023/08/19 11:39:09;;;;;;;5.72;2.63;;;;;;;37.25;nan;95268.00;5073699;28;20115;-81
2023/08/19 11:41:35;;;;;;;3.92;1.90;;;;;;;37.74;nan;95310.66;5072318;28;20105;-81
2023/08/19 11:44:05;;;;;;;4.07;2.08;;;;;;;37.90;nan;95303.44;5073745;28;20052;-82
2023/08/19 11:46:32;;;;;;;4.60;1.98;;;;;;;37.76;nan;95304.69;5071746;28;20024;-82
2023/08/19 11:49:08;;;;;;;4.38;2.08;;;;;;;38.13;nan;95319.66;5073485;28;20185;-82
2023/08/19 11:51:40;;;;;;;4.63;2.13;;;;;;;38.27;nan;95290.69;5072100;28;20052;-81